Time;durP1;ratioP1;P1;durP2;ratioP2;P2;SDS_P1;SDS_P2;PMS_P1;PMS_P2;Temp;Humidity;BMP_temperature;BMP_pressure;BME280_temperature;BME280_humidity;BME280_pressure;Samples;Min_cycle;Max_cycle;Signal;HPM_P1;HPM_P2
2021/10/09 00:01:30;;;;;;;16.33;14.23;;;;;;;;;;5017374;28;20206;-80
2021/10/09 00:03:57;;;;;;;17.58;15.02;;;;;;;;;;5017417;28;20678;-79
2021/10/09 00:06:25;;;;;;;19.63;16.48;;;;;;;;;;5017163;28;20207;-79
2021/10/09 00:08:53;;;;;;;18.40;15.07;;;;;;;;;;5018769;28;20632;-79
2021/10/09 00:11:32;;;;;;;17.92;15.65;;;;;;;;;;5018709;28;20211;-79
2021/10/09 00:14:00;;;;;;;16.85;13.57;;;;;;;;;;5017281;28;20227;-79
2021/10/09 00:16:27;;;;;;;18.13;14.70;;;;;;;;;;5018763;28;20214;-79
2021/10/09 00:18:55;;;;;;;19.55;14.80;;;;;;;;;;5018049;28;20241;-80
2021/10/09 00:21:22;;;;;;;16.77;13.73;;;;;;;;;;5018132;28;20218;-79
2021/10/09 00:23:50;;;;;;;16.23;13.43;;;;;;;;;;5021299;28;20198;-79
2021/10/09 00:26:19;;;;;;;18.38;15.50;;;;;;;;;;5037073;28;20648;-80
2021/10/09 00:28:47;;;;;;;17.35;15.25;;;;;;;;;;5036960;28;20223;-79
2021/10/09 00:31:14;;;;;;;19.13;14.85;;;;;;;;;;5036806;28;20202;-79
2021/10/09 00:33:42;;;;;;;16.00;14.40;;;;;;;;;;5036684;28;20210;-79
2021/10/09 00:36:11;;;;;;;18.17;14.63;;;;;;;;;;5035495;28;20205;-80
2021/10/09 00:38:39;;;;;;;15.10;13.02;;;;;;;;;;5036794;28;20226;-80
2021/10/09 00:41:06;;;;;;;16.38;14.27;;;;;;;;;;5036651;28;20202;-78
2021/10/09 00:43:35;;;;;;;18.98;15.48;;;;;;;;;;5034964;28;20191;-79
2021/10/09 00:46:03;;;;;;;18.80;14.07;;;;;;;;;;5016104;28;20203;-79
2021/10/09 00:48:34;;;;;;;15.60;13.35;;;;;;;;;;5017028;28;20219;-79
2021/10/09 00:51:02;;;;;;;14.65;12.60;;;;;;;;;;5016922;28;20202;-80
2021/10/09 00:53:30;;;;;;;16.63;13.80;;;;;;;;;;5016761;28;20202;-80
2021/10/09 00:55:58;;;;;;;17.52;13.00;;;;;;;;;;5017202;28;20199;-79
2021/10/09 00:58:25;;;;;;;13.35;11.82;;;;;;;;;;5016864;28;20249;-80
2021/10/09 01:00:54;;;;;;;12.52;11.00;;;;;;;;;;5016503;28;20203;-79
2021/10/09 01:03:23;;;;;;;14.68;12.68;;;;;;;;;;5017051;28;20211;-79
2021/10/09 01:05:50;;;;;;;18.15;13.68;;;;;;;;;;5016291;28;20834;-80
2021/10/09 01:08:18;;;;;;;13.90;12.43;;;;;;;;;;5016785;28;20226;-79
2021/10/09 01:10:45;;;;;;;16.08;13.32;;;;;;;;;;5016413;28;20209;-81
2021/10/09 01:13:13;;;;;;;15.48;12.20;;;;;;;;;;5013883;28;20200;-79
2021/10/09 01:15:40;;;;;;;14.60;12.60;;;;;;;;;;5014696;28;20207;-79
2021/10/09 01:18:11;;;;;;;14.00;12.07;;;;;;;;;;5029881;28;20324;-80
2021/10/09 01:20:55;;;;;;;12.40;11.15;;;;;;;;;;5034172;28;20183;-79
2021/10/09 01:23:24;;;;;;;12.77;11.57;;;;;;;;;;5035189;28;20206;-79
2021/10/09 01:25:52;;;;;;;10.70;9.60;;;;;;;;;;5035611;28;20194;-80
2021/10/09 01:28:19;;;;;;;11.50;10.07;;;;;;;;;;5019967;28;20226;-78
2021/10/09 01:30:47;;;;;;;12.43;11.13;;;;;;;;;;5015639;28;20211;-79
2021/10/09 01:33:15;;;;;;;12.48;11.18;;;;;;;;;;5015738;28;20191;-78
2021/10/09 01:35:48;;;;;;;11.02;9.93;;;;;;;;;;5015259;28;20203;-78
2021/10/09 01:38:18;;;;;;;12.10;10.90;;;;;;;;;;5015319;28;20233;-80
2021/10/09 01:40:45;;;;;;;11.40;9.65;;;;;;;;;;5015421;28;20210;-78
2021/10/09 01:43:14;;;;;;;11.85;10.05;;;;;;;;;;5015196;28;20665;-78
2021/10/09 01:45:43;;;;;;;10.75;9.65;;;;;;;;;;5015607;28;20183;-78
2021/10/09 01:48:11;;;;;;;13.15;10.48;;;;;;;;;;5016700;28;20219;-79
2021/10/09 01:50:39;;;;;;;9.82;8.60;;;;;;;;;;5035079;28;20183;-79
2021/10/09 01:53:07;;;;;;;13.85;10.60;;;;;;;;;;5034498;28;20225;-79
2021/10/09 01:55:37;;;;;;;12.38;11.10;;;;;;;;;;5034441;28;20182;-78
2021/10/09 01:58:05;;;;;;;13.10;11.40;;;;;;;;;;5018499;28;20230;-79
2021/10/09 02:00:33;;;;;;;11.85;8.57;;;;;;;;;;5012635;28;20638;-78
2021/10/09 02:03:03;;;;;;;11.30;10.10;;;;;;;;;;4995338;28;20207;-78
2021/10/09 02:05:31;;;;;;;12.82;9.75;;;;;;;;;;4994890;28;20212;-79
2021/10/09 02:07:59;;;;;;;10.73;9.07;;;;;;;;;;4995156;28;20312;-79
2021/10/09 02:10:27;;;;;;;9.32;8.40;;;;;;;;;;4995479;28;20327;-79
2021/10/09 02:12:58;;;;;;;9.50;8.52;;;;;;;;;;4995175;28;20208;-79
2021/10/09 02:15:30;;;;;;;10.05;8.88;;;;;;;;;;5034120;28;20204;-79
2021/10/09 02:18:24;;;;;;;9.60;8.43;;;;;;;;;;5032704;28;20586;-79
2021/10/09 02:26:21;;;;;;;11.73;9.20;;;;;;;;;;5019465;28;20201;-78
2021/10/09 02:28:50;;;;;;;10.85;9.32;;;;;;;;;;5025443;28;20705;-78
2021/10/09 02:31:18;;;;;;;13.18;9.70;;;;;;;;;;5014455;28;20545;-78
2021/10/09 02:33:45;;;;;;;14.15;12.65;;;;;;;;;;5014640;28;20207;-79
2021/10/09 02:36:12;;;;;;;13.10;10.68;;;;;;;;;;5014657;28;20206;-78
2021/10/09 02:38:40;;;;;;;12.93;10.60;;;;;;;;;;5025952;28;20222;-80
2021/10/09 02:41:07;;;;;;;14.10;12.60;;;;;;;;;;5034591;28;20209;-79
2021/10/09 02:43:35;;;;;;;13.98;11.40;;;;;;;;;;5028319;28;20203;-79
2021/10/09 02:46:04;;;;;;;14.18;11.40;;;;;;;;;;5019813;28;20182;-79
2021/10/09 02:48:31;;;;;;;11.75;10.35;;;;;;;;;;5013980;28;20230;-78
2021/10/09 02:50:59;;;;;;;13.30;11.80;;;;;;;;;;5014126;28;20286;-78
2021/10/09 02:53:26;;;;;;;11.18;10.05;;;;;;;;;;5014412;28;20191;-79
2021/10/09 02:55:54;;;;;;;14.43;10.65;;;;;;;;;;5017222;28;20182;-79
2021/10/09 02:58:22;;;;;;;18.17;11.20;;;;;;;;;;5033812;28;20607;-79
2021/10/09 03:00:49;;;;;;;13.15;11.75;;;;;;;;;;5033704;28;20200;-79
2021/10/09 03:03:18;;;;;;;17.00;12.15;;;;;;;;;;5034003;28;20202;-79
2021/10/09 03:05:46;;;;;;;13.07;11.55;;;;;;;;;;5033488;28;20205;-78
2021/10/09 03:08:13;;;;;;;12.85;10.50;;;;;;;;;;5033505;28;20222;-79
2021/10/09 03:10:41;;;;;;;10.95;9.57;;;;;;;;;;5034123;28;20191;-79
2021/10/09 03:13:09;;;;;;;10.95;9.85;;;;;;;;;;5026199;28;20189;-79
2021/10/09 03:15:36;;;;;;;13.02;10.80;;;;;;;;;;5016959;28;20195;-80
2021/10/09 03:18:04;;;;;;;13.88;12.18;;;;;;;;;;5013530;28;20257;-79
2021/10/09 03:20:33;;;;;;;13.18;10.13;;;;;;;;;;5026384;28;20190;-79
2021/10/09 03:23:00;;;;;;;12.07;10.43;;;;;;;;;;5033873;28;20203;-78
2021/10/09 03:25:28;;;;;;;14.57;10.05;;;;;;;;;;5033679;28;20664;-78
2021/10/09 03:27:55;;;;;;;11.98;9.60;;;;;;;;;;5017301;28;20219;-79
2021/10/09 03:30:23;;;;;;;12.38;10.13;;;;;;;;;;5014060;28;20187;-79
2021/10/09 03:32:50;;;;;;;15.23;10.05;;;;;;;;;;5014020;28;20184;-80
2021/10/09 03:35:17;;;;;;;10.35;9.02;;;;;;;;;;5014279;28;20202;-78
2021/10/09 03:37:46;;;;;;;13.23;10.95;;;;;;;;;;5013586;28;20227;-79
2021/10/09 03:40:17;;;;;;;12.88;10.10;;;;;;;;;;5018598;28;20207;-78
2021/10/09 03:42:47;;;;;;;16.02;10.02;;;;;;;;;;5033224;28;20661;-77
2021/10/09 03:45:20;;;;;;;9.73;8.82;;;;;;;;;;5032924;28;20774;-78
2021/10/09 03:53:17;;;;;;;12.88;10.38;;;;;;;;;;5036831;28;20270;-78
2021/10/09 03:55:45;;;;;;;12.00;10.18;;;;;;;;;;5037155;28;20201;-78
2021/10/09 03:58:12;;;;;;;12.00;10.80;;;;;;;;;;5036630;28;20226;-78
2021/10/09 04:00:40;;;;;;;10.93;8.60;;;;;;;;;;5036018;28;20772;-78
2021/10/09 04:03:07;;;;;;;11.98;10.75;;;;;;;;;;5035982;28;20213;-79
2021/10/09 04:05:35;;;;;;;11.20;8.23;;;;;;;;;;5036651;28;20214;-78
2021/10/09 04:08:05;;;;;;;11.57;10.05;;;;;;;;;;5036435;28;20704;-78
2021/10/09 04:10:34;;;;;;;11.15;9.27;;;;;;;;;;5036543;28;20201;-78
2021/10/09 04:13:02;;;;;;;13.25;9.38;;;;;;;;;;5036294;28;20202;-79
2021/10/09 04:15:29;;;;;;;11.63;10.43;;;;;;;;;;5036868;28;20190;-78
2021/10/09 04:17:57;;;;;;;11.18;9.98;;;;;;;;;;5036069;28;20234;-78
2021/10/09 04:20:25;;;;;;;12.75;9.55;;;;;;;;;;5036234;28;20229;-78
2021/10/09 04:22:52;;;;;;;13.60;9.65;;;;;;;;;;5036252;28;20214;-78
2021/10/09 04:25:22;;;;;;;10.13;8.95;;;;;;;;;;5035963;28;20190;-79
2021/10/09 04:27:54;;;;;;;11.70;9.30;;;;;;;;;;5035763;28;20218;-79
2021/10/09 04:30:22;;;;;;;11.20;8.98;;;;;;;;;;5036334;28;20198;-78
2021/10/09 04:32:49;;;;;;;10.18;9.18;;;;;;;;;;5021266;28;20199;-78
2021/10/09 04:35:17;;;;;;;11.82;9.93;;;;;;;;;;5016097;28;20700;-78
2021/10/09 04:37:45;;;;;;;10.25;9.23;;;;;;;;;;5015981;28;20593;-79
2021/10/09 04:40:13;;;;;;;11.10;9.05;;;;;;;;;;5015756;28;20227;-78
2021/10/09 04:42:41;;;;;;;12.63;10.70;;;;;;;;;;5016230;28;20199;-78
2021/10/09 04:45:10;;;;;;;14.73;10.05;;;;;;;;;;5032245;28;20201;-79
2021/10/09 04:47:38;;;;;;;9.93;8.65;;;;;;;;;;5035144;28;20229;-78
2021/10/09 04:50:07;;;;;;;10.52;9.27;;;;;;;;;;5027685;28;20203;-78
2021/10/09 04:52:34;;;;;;;11.35;9.32;;;;;;;;;;5015118;28;20203;-78
2021/10/09 04:55:01;;;;;;;12.45;9.20;;;;;;;;;;5015768;28;20214;-78
2021/10/09 04:57:29;;;;;;;12.07;9.95;;;;;;;;;;5015491;28;20223;-80
2021/10/09 04:59:56;;;;;;;13.88;10.00;;;;;;;;;;5016822;28;20230;-78
2021/10/09 05:02:25;;;;;;;12.13;9.90;;;;;;;;;;5035276;28;20209;-78
2021/10/09 05:04:53;;;;;;;12.20;10.23;;;;;;;;;;5035251;28;20668;-79
2021/10/09 05:07:20;;;;;;;10.60;8.65;;;;;;;;;;5035494;28;20226;-79
2021/10/09 05:09:50;;;;;;;12.32;10.00;;;;;;;;;;5035329;28;20648;-77
2021/10/09 05:12:17;;;;;;;10.85;8.95;;;;;;;;;;5024831;28;20642;-79
2021/10/09 05:14:45;;;;;;;14.48;11.70;;;;;;;;;;5015165;28;20668;-77
2021/10/09 05:17:13;;;;;;;11.57;9.88;;;;;;;;;;5015350;28;20234;-78
2021/10/09 05:19:42;;;;;;;13.00;10.80;;;;;;;;;;5015134;28;20232;-78
2021/10/09 05:22:10;;;;;;;12.43;11.13;;;;;;;;;;5015485;28;20198;-78
2021/10/09 05:24:37;;;;;;;12.70;10.35;;;;;;;;;;5015547;28;20203;-78
2021/10/09 05:27:05;;;;;;;12.68;10.32;;;;;;;;;;5014831;28;20225;-78
2021/10/09 05:29:32;;;;;;;17.75;9.43;;;;;;;;;;5015020;28;20268;-77
2021/10/09 05:32:05;;;;;;;11.43;8.85;;;;;;;;;;5014718;28;20238;-78
2021/10/09 05:34:33;;;;;;;14.35;9.68;;;;;;;;;;5023042;28;20191;-78
2021/10/09 05:37:03;;;;;;;12.23;9.63;;;;;;;;;;5034777;28;20226;-78
2021/10/09 05:39:30;;;;;;;13.88;9.68;;;;;;;;;;5033933;28;20213;-78
2021/10/09 05:41:58;;;;;;;15.00;10.48;;;;;;;;;;5033291;28;20566;-79
2021/10/09 05:44:25;;;;;;;11.75;9.07;;;;;;;;;;5034427;28;20209;-78
2021/10/09 05:46:53;;;;;;;10.65;9.52;;;;;;;;;;5034528;28;20236;-78
2021/10/09 05:49:20;;;;;;;10.88;8.85;;;;;;;;;;5034233;28;20293;-78
2021/10/09 05:51:55;;;;;;;15.30;8.95;;;;;;;;;;5034839;28;20198;-78
2021/10/09 05:54:28;;;;;;;13.02;9.73;;;;;;;;;;5034067;28;20192;-77
2021/10/09 05:57:01;;;;;;;12.45;9.40;;;;;;;;;;5034412;28;20245;-77
2021/10/09 06:00:04;;;;;;;14.13;10.00;;;;;;;;;;5020273;28;20649;-78
2021/10/09 06:44:05;;;;;;;10.23;8.95;;;;;;;;;;5012296;28;20660;-78
2021/10/09 06:59:46;;;;;;;11.80;10.43;;;;;;;;;;4953565;28;20199;-78
2021/10/09 07:02:13;;;;;;;10.77;9.73;;;;;;;;;;4985037;28;20195;-78
2021/10/09 07:04:41;;;;;;;12.10;10.63;;;;;;;;;;4973715;28;20215;-78
2021/10/09 07:07:11;;;;;;;11.57;9.38;;;;;;;;;;4973621;28;20224;-79
2021/10/09 07:09:40;;;;;;;10.30;9.30;;;;;;;;;;4974017;28;20193;-77
2021/10/09 07:12:07;;;;;;;10.52;7.68;;;;;;;;;;4973504;28;20220;-78
2021/10/09 07:14:35;;;;;;;11.82;10.20;;;;;;;;;;4974150;28;20217;-79
2021/10/09 07:17:04;;;;;;;12.95;10.75;;;;;;;;;;4973671;28;20234;-78
2021/10/09 07:19:32;;;;;;;13.70;12.05;;;;;;;;;;4973648;28;20204;-78
2021/10/09 07:21:59;;;;;;;11.60;10.30;;;;;;;;;;4973822;28;20188;-78
2021/10/09 07:24:27;;;;;;;15.10;11.93;;;;;;;;;;4976618;28;20200;-78
2021/10/09 07:26:54;;;;;;;10.55;9.45;;;;;;;;;;4976815;28;20231;-78
2021/10/09 07:29:21;;;;;;;13.52;11.32;;;;;;;;;;4977323;28;20208;-78
2021/10/09 07:31:49;;;;;;;14.20;11.25;;;;;;;;;;4977117;28;20224;-79
2021/10/09 07:34:18;;;;;;;11.60;10.40;;;;;;;;;;4977387;28;20208;-77
2021/10/09 07:36:45;;;;;;;11.45;10.20;;;;;;;;;;4977441;28;20184;-78
2021/10/09 07:39:12;;;;;;;9.85;8.85;;;;;;;;;;4978362;28;20195;-78
2021/10/09 07:41:40;;;;;;;9.75;8.75;;;;;;;;;;4980388;28;20200;-79
2021/10/09 07:44:07;;;;;;;9.18;8.00;;;;;;;;;;4996479;28;20207;-78
2021/10/09 07:46:35;;;;;;;9.95;8.40;;;;;;;;;;4996344;28;20200;-79
2021/10/09 07:49:04;;;;;;;12.48;9.85;;;;;;;;;;4997105;28;20290;-79
2021/10/09 07:51:33;;;;;;;12.57;11.02;;;;;;;;;;4980284;28;20225;-79
2021/10/09 07:54:03;;;;;;;9.00;7.55;;;;;;;;;;4977484;28;20217;-78
2021/10/09 07:56:31;;;;;;;9.93;8.93;;;;;;;;;;4977317;28;20189;-79
2021/10/09 07:58:58;;;;;;;9.30;7.72;;;;;;;;;;4980060;28;20670;-79
2021/10/09 08:01:26;;;;;;;8.60;7.72;;;;;;;;;;4985747;28;20577;-79
2021/10/09 08:03:53;;;;;;;12.70;11.20;;;;;;;;;;4996264;28;20674;-79
2021/10/09 08:06:21;;;;;;;14.13;11.43;;;;;;;;;;4990047;28;20224;-80
2021/10/09 08:08:49;;;;;;;12.93;10.98;;;;;;;;;;4976783;28;20220;-79
2021/10/09 08:11:17;;;;;;;11.73;10.60;;;;;;;;;;4977340;28;20220;-81
2021/10/09 08:13:44;;;;;;;10.23;9.02;;;;;;;;;;4977948;28;20201;-80
2021/10/09 08:16:12;;;;;;;11.05;9.95;;;;;;;;;;4977720;28;20185;-80
2021/10/09 08:18:40;;;;;;;8.65;7.63;;;;;;;;;;4977230;28;20228;-79
2021/10/09 08:21:08;;;;;;;9.65;8.57;;;;;;;;;;4977321;28;20705;-79
2021/10/09 08:23:40;;;;;;;12.90;9.73;;;;;;;;;;4977276;28;20673;-80
2021/10/09 08:36:56;;;;;;;14.18;8.88;;;;;;;;;;4969403;28;20748;-81
2021/10/09 08:39:23;;;;;;;11.80;9.00;;;;;;;;;;4977548;28;20197;-81
2021/10/09 08:41:52;;;;;;;10.77;9.65;;;;;;;;;;4977305;28;20219;-80
2021/10/09 08:44:20;;;;;;;11.13;9.55;;;;;;;;;;4977728;28;20215;-80
2021/10/09 08:46:48;;;;;;;13.63;10.70;;;;;;;;;;4978098;28;20207;-82
2021/10/09 08:49:15;;;;;;;14.65;10.05;;;;;;;;;;4977377;28;20204;-81
2021/10/09 08:51:43;;;;;;;12.45;10.98;;;;;;;;;;4977400;28;20250;-80
2021/10/09 08:54:12;;;;;;;10.82;9.00;;;;;;;;;;4976773;28;20701;-81
2021/10/09 08:56:43;;;;;;;13.13;10.18;;;;;;;;;;4977363;28;20226;-82
2021/10/09 08:59:21;;;;;;;9.45;7.88;;;;;;;;;;4977029;28;20236;-81
2021/10/09 09:02:03;;;;;;;12.85;10.15;;;;;;;;;;4977541;28;20283;-82
2021/10/09 09:04:41;;;;;;;8.30;7.50;;;;;;;;;;4977010;28;20258;-81
2021/10/09 09:30:57;;;;;;;9.00;7.93;;;;;;;;;;4936076;29;20221;-82
2021/10/09 09:33:40;;;;;;;6.60;5.53;;;;;;;;;;4976737;28;20224;-81
2021/10/09 09:36:20;;;;;;;8.27;6.45;;;;;;;;;;4976922;28;20204;-81
2021/10/09 09:38:55;;;;;;;7.68;6.40;;;;;;;;;;4976740;28;20601;-80
2021/10/09 09:41:25;;;;;;;10.10;6.57;;;;;;;;;;4976748;28;20208;-80
2021/10/09 09:43:53;;;;;;;7.22;6.50;;;;;;;;;;4977012;28;20693;-80
2021/10/09 09:46:23;;;;;;;7.60;5.75;;;;;;;;;;4975500;28;20212;-81
2021/10/09 09:48:53;;;;;;;7.03;6.00;;;;;;;;;;4976290;28;20228;-81
2021/10/09 09:51:23;;;;;;;9.50;7.68;;;;;;;;;;4976234;28;20593;-82
2021/10/09 09:53:51;;;;;;;10.07;9.18;;;;;;;;;;4976464;28;20600;-80
2021/10/09 09:56:20;;;;;;;11.43;8.00;;;;;;;;;;4976566;28;20293;-82
2021/10/09 09:58:54;;;;;;;7.18;6.47;;;;;;;;;;4976417;28;20224;-82
2021/10/09 10:01:23;;;;;;;7.97;7.18;;;;;;;;;;4976270;28;20219;-82
2021/10/09 10:03:54;;;;;;;9.50;8.13;;;;;;;;;;4976550;28;20208;-82
2021/10/09 10:06:22;;;;;;;7.85;6.55;;;;;;;;;;4976332;28;20208;-82
2021/10/09 10:08:49;;;;;;;11.88;8.90;;;;;;;;;;4976064;28;20231;-82
2021/10/09 10:11:18;;;;;;;10.85;8.00;;;;;;;;;;4976653;28;20224;-82
2021/10/09 10:13:47;;;;;;;7.70;6.70;;;;;;;;;;4976380;28;20208;-82
2021/10/09 10:16:15;;;;;;;7.72;6.90;;;;;;;;;;4975568;28;20201;-81
2021/10/09 10:18:52;;;;;;;10.05;7.80;;;;;;;;;;4975372;28;20714;-81
2021/10/09 10:21:30;;;;;;;8.80;7.88;;;;;;;;;;4975999;28;20204;-81
2021/10/09 10:23:57;;;;;;;9.10;7.68;;;;;;;;;;4975094;28;20227;-81
2021/10/09 10:26:31;;;;;;;9.25;8.32;;;;;;;;;;4976080;28;20208;-82
2021/10/09 10:29:24;;;;;;;7.55;6.60;;;;;;;;;;4975443;28;20650;-82
2021/10/09 10:32:13;;;;;;;8.10;7.30;;;;;;;;;;4975874;28;20204;-81
2021/10/09 10:34:45;;;;;;;6.78;6.00;;;;;;;;;;4975775;28;20235;-82
2021/10/09 10:37:46;;;;;;;6.97;6.28;;;;;;;;;;4975133;28;20228;-80
2021/10/09 10:40:46;;;;;;;7.70;5.28;;;;;;;;;;4916297;29;20206;-82
2021/10/09 10:43:40;;;;;;;5.03;4.50;;;;;;;;;;4915819;29;20803;-81
2021/10/09 10:46:37;;;;;;;7.28;5.25;;;;;;;;;;4963901;28;20291;-81
2021/10/09 10:49:10;;;;;;;6.20;5.05;;;;;;;;;;4975762;28;20690;-82
2021/10/09 10:51:58;;;;;;;6.35;5.75;;;;;;;;;;4975573;28;20236;-80
2021/10/09 10:57:24;;;;;;;6.35;5.28;;;;;;;;;;4975152;28;20212;-82
2021/10/09 10:59:56;;;;;;;5.28;4.78;;;;;;;;;;4974955;28;20212;-82
2021/10/09 11:02:26;;;;;;;5.25;4.70;;;;;;;;;;4975598;28;20204;-82
2021/10/09 11:04:56;;;;;;;4.95;4.45;;;;;;;;;;4975400;28;20208;-82
2021/10/09 11:07:30;;;;;;;4.70;4.30;;;;;;;;;;4975323;28;20240;-81
2021/10/09 11:10:06;;;;;;;5.05;4.47;;;;;;;;;;4975117;28;20236;-82
2021/10/09 11:12:35;;;;;;;6.50;4.85;;;;;;;;;;4975918;28;20204;-82
2021/10/09 11:15:09;;;;;;;6.45;5.35;;;;;;;;;;4975595;28;20299;-81
2021/10/09 11:17:39;;;;;;;4.22;3.83;;;;;;;;;;4975350;28;20230;-81
2021/10/09 11:20:09;;;;;;;4.28;3.88;;;;;;;;;;4975842;28;20201;-81
2021/10/09 11:22:45;;;;;;;3.75;3.28;;;;;;;;;;4975466;28;20259;-80
2021/10/09 11:25:25;;;;;;;5.15;4.30;;;;;;;;;;4975788;28;20208;-81
2021/10/09 11:27:52;;;;;;;5.13;4.65;;;;;;;;;;4975303;28;20615;-82
2021/10/09 11:30:20;;;;;;;5.53;5.03;;;;;;;;;;4975501;28;20239;-82
2021/10/09 11:32:48;;;;;;;5.15;4.68;;;;;;;;;;4975663;28;20697;-82
2021/10/09 11:35:18;;;;;;;8.13;5.55;;;;;;;;;;4975098;28;20278;-81
2021/10/09 11:37:50;;;;;;;5.18;4.68;;;;;;;;;;4975027;28;20228;-82
2021/10/09 11:40:30;;;;;;;5.55;4.00;;;;;;;;;;4975349;28;20201;-82
2021/10/09 11:43:01;;;;;;;5.18;4.35;;;;;;;;;;4975331;28;20314;-82
2021/10/09 11:45:35;;;;;;;4.28;3.88;;;;;;;;;;4975000;28;20215;-82
2021/10/09 11:53:50;;;;;;;4.05;3.65;;;;;;;;;;4975176;28;20199;-82
2021/10/09 11:56:20;;;;;;;3.33;3.03;;;;;;;;;;4975679;28;20294;-82
2021/10/09 11:58:53;;;;;;;3.83;3.42;;;;;;;;;;4975106;28;20224;-81
2021/10/09 12:01:36;;;;;;;3.92;3.58;;;;;;;;;;4975052;28;20208;-81
2021/10/09 12:04:21;;;;;;;3.65;3.35;;;;;;;;;;4974851;28;20282;-81
2021/10/09 12:06:54;;;;;;;4.05;3.60;;;;;;;;;;4974908;28;20204;-82
2021/10/09 12:09:36;;;;;;;4.30;3.75;;;;;;;;;;4975130;28;20227;-82
2021/10/09 12:12:20;;;;;;;4.65;4.00;;;;;;;;;;4978443;28;20262;-80
2021/10/09 12:14:48;;;;;;;4.22;3.47;;;;;;;;;;4977882;28;20293;-81
2021/10/09 12:17:17;;;;;;;4.18;3.88;;;;;;;;;;4978713;28;20227;-81
2021/10/09 12:19:46;;;;;;;3.13;2.92;;;;;;;;;;4978113;28;20204;-83
2021/10/09 12:22:14;;;;;;;3.05;2.80;;;;;;;;;;4979180;28;20204;-82
2021/10/09 12:24:50;;;;;;;6.07;3.78;;;;;;;;;;4979519;28;20224;-82
2021/10/09 12:27:19;;;;;;;3.60;3.30;;;;;;;;;;4980401;28;20429;-81
2021/10/09 12:30:03;;;;;;;4.05;3.58;;;;;;;;;;4979462;28;20745;-81
2021/10/09 12:32:32;;;;;;;3.33;3.03;;;;;;;;;;4977863;28;20208;-80
2021/10/09 12:35:13;;;;;;;3.45;3.15;;;;;;;;;;4977532;28;20208;-81
2021/10/09 12:37:53;;;;;;;3.95;3.55;;;;;;;;;;4977595;28;20315;-80
2021/10/09 12:40:22;;;;;;;3.67;3.08;;;;;;;;;;4977892;28;20243;-80
2021/10/09 12:42:52;;;;;;;2.70;2.50;;;;;;;;;;4977959;28;20205;-81
2021/10/09 12:45:20;;;;;;;2.80;2.60;;;;;;;;;;4977515;28;20224;-81
2021/10/09 12:47:48;;;;;;;3.50;2.83;;;;;;;;;;4977834;28;20217;-81
2021/10/09 12:50:16;;;;;;;2.78;2.53;;;;;;;;;;4977402;28;20216;-81
2021/10/09 12:52:44;;;;;;;3.10;2.75;;;;;;;;;;4977949;28;20717;-81
2021/10/09 12:55:13;;;;;;;2.95;2.75;;;;;;;;;;4977941;28;20205;-81
2021/10/09 12:57:51;;;;;;;2.70;2.50;;;;;;;;;;4978002;28;20280;-81
2021/10/09 13:00:19;;;;;;;2.30;2.10;;;;;;;;;;4976892;28;20203;-81
2021/10/09 13:02:46;;;;;;;3.72;2.78;;;;;;;;;;4977551;28;20196;-81
2021/10/09 13:05:14;;;;;;;3.30;3.00;;;;;;;;;;4977796;28;20590;-81
2021/10/09 13:07:42;;;;;;;2.83;2.63;;;;;;;;;;4977776;28;20220;-81
2021/10/09 13:10:11;;;;;;;3.70;2.60;;;;;;;;;;4977446;28;20204;-81
2021/10/09 13:12:38;;;;;;;5.35;3.13;;;;;;;;;;4977479;28;20210;-81
2021/10/09 13:15:08;;;;;;;2.47;2.25;;;;;;;;;;4977530;28;20211;-81
2021/10/09 13:17:36;;;;;;;3.58;3.00;;;;;;;;;;4977029;28;20239;-81
2021/10/09 13:20:05;;;;;;;2.80;2.60;;;;;;;;;;4977982;28;20215;-80
2021/10/09 13:22:33;;;;;;;2.70;2.50;;;;;;;;;;4976763;28;20694;-81
2021/10/09 13:25:00;;;;;;;2.97;2.63;;;;;;;;;;4977154;28;20230;-80
2021/10/09 13:27:28;;;;;;;3.40;2.70;;;;;;;;;;4976609;28;20232;-81
2021/10/09 13:29:55;;;;;;;2.50;2.30;;;;;;;;;;4976813;28;20733;-81
2021/10/09 13:32:24;;;;;;;2.38;2.17;;;;;;;;;;4977356;28;20208;-80
2021/10/09 13:34:51;;;;;;;2.25;2.05;;;;;;;;;;4976863;28;20196;-81
2021/10/09 13:37:20;;;;;;;2.83;2.55;;;;;;;;;;4976588;28;20308;-80
2021/10/09 13:39:48;;;;;;;2.70;2.45;;;;;;;;;;4976885;28;20204;-79
2021/10/09 13:42:15;;;;;;;3.45;3.15;;;;;;;;;;4976664;28;20204;-80
2021/10/09 13:44:43;;;;;;;3.20;2.90;;;;;;;;;;4976981;28;20228;-81
2021/10/09 13:47:11;;;;;;;3.03;2.75;;;;;;;;;;4975709;28;20227;-81
2021/10/09 13:49:40;;;;;;;2.63;2.20;;;;;;;;;;4977330;28;20231;-81
2021/10/09 13:52:08;;;;;;;4.40;2.58;;;;;;;;;;4976907;28;20736;-81
2021/10/09 13:54:35;;;;;;;2.83;2.47;;;;;;;;;;4977115;28;20200;-80
2021/10/09 13:57:02;;;;;;;2.25;2.08;;;;;;;;;;4977408;28;20231;-80
2021/10/09 13:59:30;;;;;;;2.05;1.95;;;;;;;;;;4975775;28;20675;-80
2021/10/09 14:01:57;;;;;;;4.85;2.58;;;;;;;;;;4976457;28;20208;-80
2021/10/09 14:04:25;;;;;;;2.75;2.55;;;;;;;;;;4975161;28;20600;-80
2021/10/09 14:06:53;;;;;;;2.85;2.35;;;;;;;;;;4975920;28;20215;-79
2021/10/09 14:09:21;;;;;;;2.08;1.80;;;;;;;;;;4975489;28;20212;-80
2021/10/09 14:11:48;;;;;;;2.13;1.83;;;;;;;;;;4975719;28;20208;-80
2021/10/09 14:14:16;;;;;;;1.70;1.60;;;;;;;;;;4976276;28;20208;-78
2021/10/09 14:16:43;;;;;;;2.10;1.90;;;;;;;;;;4975172;28;20200;-79
2021/10/09 14:19:10;;;;;;;3.00;2.70;;;;;;;;;;4975258;28;20233;-80
2021/10/09 14:21:38;;;;;;;3.35;2.63;;;;;;;;;;4974987;28;20212;-80
2021/10/09 14:24:07;;;;;;;4.88;3.28;;;;;;;;;;4975596;28;20548;-79
2021/10/09 14:26:34;;;;;;;4.28;2.47;;;;;;;;;;4974901;28;20215;-80
2021/10/09 14:29:02;;;;;;;2.40;2.20;;;;;;;;;;4975831;28;20204;-79
2021/10/09 14:31:29;;;;;;;3.17;2.60;;;;;;;;;;4975234;28;20206;-81
2021/10/09 14:33:57;;;;;;;2.85;2.63;;;;;;;;;;4975485;28;20295;-81
2021/10/09 14:36:24;;;;;;;4.15;2.80;;;;;;;;;;4975612;28;20212;-79
2021/10/09 14:38:51;;;;;;;6.60;3.67;;;;;;;;;;4975534;28;20228;-81
2021/10/09 14:41:20;;;;;;;2.65;2.45;;;;;;;;;;4975058;28;20218;-81
2021/10/09 14:43:48;;;;;;;2.75;2.40;;;;;;;;;;4975408;28;20204;-79
2021/10/09 14:49:08;;;;;;;2.97;2.08;;;;;;;;;;4920794;28;20203;-81
2021/10/09 14:51:39;;;;;;;2.20;1.98;;;;;;;;;;4975582;28;20784;-80
2021/10/09 15:02:35;;;;;;;3.03;2.17;;;;;;;;;;4936157;28;20203;-80
2021/10/09 15:16:29;;;;;;;1.85;1.75;;;;;;;;;;4975214;28;20689;-80
2021/10/09 15:18:57;;;;;;;1.92;1.80;;;;;;;;;;4975452;28;20232;-80
2021/10/09 15:21:24;;;;;;;2.40;1.73;;;;;;;;;;4975472;28;20212;-81
2021/10/09 15:23:51;;;;;;;1.30;1.20;;;;;;;;;;4974436;28;20553;-80
2021/10/09 15:26:19;;;;;;;3.35;2.38;;;;;;;;;;4975040;28;20231;-79
2021/10/09 15:28:47;;;;;;;2.17;2.05;;;;;;;;;;4975372;28;20239;-81
2021/10/09 15:31:16;;;;;;;2.30;2.10;;;;;;;;;;4975623;28;20205;-80
2021/10/09 15:33:44;;;;;;;2.10;2.00;;;;;;;;;;4975197;28;20207;-80
2021/10/09 15:36:12;;;;;;;2.33;1.85;;;;;;;;;;4974958;28;20204;-79
2021/10/09 15:38:39;;;;;;;3.53;1.85;;;;;;;;;;4975099;28;20224;-80
2021/10/09 15:41:07;;;;;;;1.90;1.80;;;;;;;;;;4975268;28;20753;-81
2021/10/09 15:43:34;;;;;;;3.85;2.67;;;;;;;;;;4975131;28;20606;-79
2021/10/09 15:46:03;;;;;;;2.00;1.90;;;;;;;;;;4978307;28;20234;-80
2021/10/09 15:48:31;;;;;;;2.45;2.25;;;;;;;;;;4978810;28;20229;-81
2021/10/09 15:50:58;;;;;;;2.50;2.00;;;;;;;;;;4977403;28;20208;-79
2021/10/09 15:53:25;;;;;;;2.97;2.65;;;;;;;;;;4978500;28;20208;-79
2021/10/09 15:55:53;;;;;;;2.72;2.53;;;;;;;;;;4978594;28;20209;-79
2021/10/09 15:58:21;;;;;;;4.25;3.08;;;;;;;;;;4977733;28;20220;-80
2021/10/09 16:00:49;;;;;;;3.22;2.92;;;;;;;;;;4978746;28;20236;-79
2021/10/09 16:03:18;;;;;;;4.25;3.85;;;;;;;;;;4978326;28;20663;-80
2021/10/09 16:05:45;;;;;;;3.33;3.03;;;;;;;;;;4978331;28;20251;-81
2021/10/09 16:08:12;;;;;;;3.20;2.65;;;;;;;;;;4978059;28;20711;-80
2021/10/09 16:10:40;;;;;;;4.05;3.22;;;;;;;;;;4977401;28;20212;-79
2021/10/09 16:13:10;;;;;;;2.70;2.50;;;;;;;;;;4978006;28;20215;-80
2021/10/09 16:15:37;;;;;;;2.70;2.45;;;;;;;;;;4978269;28;20201;-79
2021/10/09 16:18:05;;;;;;;4.78;4.05;;;;;;;;;;4977858;28;20236;-80
2021/10/09 16:20:34;;;;;;;3.42;3.13;;;;;;;;;;4977476;28;20204;-79
2021/10/09 16:23:01;;;;;;;3.03;2.75;;;;;;;;;;4977498;28;20212;-79
2021/10/09 16:25:28;;;;;;;3.33;3.03;;;;;;;;;;4977388;28;20224;-79
2021/10/09 16:27:56;;;;;;;3.97;3.38;;;;;;;;;;4977228;28;20224;-80
2021/10/09 16:30:23;;;;;;;3.78;3.17;;;;;;;;;;4977549;28;20208;-79
2021/10/09 16:32:51;;;;;;;4.35;3.75;;;;;;;;;;4977462;28;20655;-79
2021/10/09 16:35:18;;;;;;;3.53;3.17;;;;;;;;;;4977266;28;20211;-80
2021/10/09 16:37:47;;;;;;;5.40;3.95;;;;;;;;;;4976923;28;20239;-78
2021/10/09 16:40:14;;;;;;;3.97;3.55;;;;;;;;;;4976853;28;20204;-78
2021/10/09 16:42:42;;;;;;;4.25;3.55;;;;;;;;;;4976770;28;20204;-78
2021/10/09 16:45:10;;;;;;;2.75;2.53;;;;;;;;;;4969303;28;20212;-78
2021/10/09 16:47:38;;;;;;;4.95;3.35;;;;;;;;;;4977290;28;20232;-78
2021/10/09 16:50:06;;;;;;;3.83;3.20;;;;;;;;;;4977347;28;20582;-79
2021/10/09 16:52:34;;;;;;;3.58;3.13;;;;;;;;;;4976783;28;20259;-79
2021/10/09 16:55:03;;;;;;;5.40;3.60;;;;;;;;;;4977224;28;20212;-78
2021/10/09 16:57:30;;;;;;;4.15;3.75;;;;;;;;;;4975737;28;20232;-78
2021/10/09 16:59:58;;;;;;;3.50;3.20;;;;;;;;;;4977239;28;20606;-78